Time;durP1;ratioP1;P1;durP2;ratioP2;P2;SDS_P1;SDS_P2;PMS_P1;PMS_P2;Temp;Humidity;BMP_temperature;BMP_pressure;BME280_temperature;BME280_humidity;BME280_pressure;Samples;Min_cycle;Max_cycle;Signal;HPM_P1;HPM_P2
2023/08/08 00:00:22;;;;;;;1.00;0.73;;;;;;;18.31;61.28;94854.13;5084399;28;20023;-81
2023/08/08 00:02:48;;;;;;;3.58;0.70;;;;;;;18.22;61.31;94855.03;5084759;28;20024;-80
2023/08/08 00:05:13;;;;;;;1.23;0.77;;;;;;;18.17;61.39;94864.06;5085710;28;20030;-79
2023/08/08 00:07:38;;;;;;;1.63;0.70;;;;;;;18.20;61.77;94867.91;5083950;28;20401;-79
2023/08/08 00:10:04;;;;;;;0.93;0.75;;;;;;;18.10;60.90;94864.50;5084485;28;20450;-80
2023/08/08 00:12:30;;;;;;;2.30;1.10;;;;;;;18.06;60.53;94863.94;5085945;28;20024;-81
2023/08/08 00:14:55;;;;;;;1.05;0.80;;;;;;;18.00;60.03;94852.75;5086042;28;20351;-79
2023/08/08 00:17:20;;;;;;;1.23;0.70;;;;;;;17.90;59.92;94862.50;5085329;28;20024;-81
2023/08/08 00:19:46;;;;;;;1.77;0.80;;;;;;;17.81;60.29;94856.31;5097346;28;20039;-81
2023/08/08 00:22:11;;;;;;;1.27;0.80;;;;;;;17.76;60.32;94861.31;5096489;28;20017;-81
2023/08/08 00:24:37;;;;;;;1.17;0.80;;;;;;;17.76;59.93;94861.31;5091822;28;20028;-81
2023/08/08 00:27:02;;;;;;;2.88;0.80;;;;;;;17.73;59.90;94856.72;5086186;28;20050;-81
2023/08/08 00:29:28;;;;;;;1.17;0.90;;;;;;;17.65;60.27;94861.13;5087151;28;20606;-81
2023/08/08 00:31:53;;;;;;;1.58;0.85;;;;;;;17.55;60.83;94870.88;5087060;28;20036;-81
2023/08/08 00:34:19;;;;;;;1.70;0.80;;;;;;;17.48;60.57;94868.47;5087945;28;20031;-81
2023/08/08 00:36:44;;;;;;;1.73;0.80;;;;;;;17.45;60.64;94870.22;5088328;28;20576;-81
2023/08/08 00:39:09;;;;;;;2.75;0.98;;;;;;;17.39;60.50;94863.06;5089272;28;20020;-81
2023/08/08 00:41:36;;;;;;;1.20;0.80;;;;;;;17.36;61.05;94866.78;5090838;28;20024;-81
2023/08/08 00:44:01;;;;;;;1.10;0.73;;;;;;;17.35;60.70;94868.03;5088108;28;20051;-81
2023/08/08 00:46:27;;;;;;;1.40;0.80;;;;;;;17.32;61.03;94874.53;5090682;28;20479;-80
2023/08/08 00:48:52;;;;;;;1.50;0.75;;;;;;;17.22;60.98;94871.91;5087936;28;20471;-81
2023/08/08 00:51:18;;;;;;;2.55;0.90;;;;;;;17.22;61.16;94874.69;5088126;28;20520;-81
2023/08/08 00:53:44;;;;;;;1.35;0.85;;;;;;;17.21;61.41;94889.06;5088315;28;20023;-81
2023/08/08 00:56:11;;;;;;;1.27;0.90;;;;;;;17.26;60.79;94891.13;5087830;28;20414;-81
2023/08/08 00:58:36;;;;;;;1.38;0.98;;;;;;;17.15;61.31;94886.19;5071723;28;20067;-81
2023/08/08 01:01:03;;;;;;;2.13;0.88;;;;;;;17.16;61.15;94887.72;5087472;28;20051;-81
2023/08/08 01:03:29;;;;;;;1.00;0.80;;;;;;;17.14;60.72;94898.53;5090259;28;20103;-81
2023/08/08 01:06:03;;;;;;;1.40;0.80;;;;;;;17.13;60.65;94890.69;5088650;28;20679;-81
2023/08/08 01:08:33;;;;;;;1.02;0.80;;;;;;;17.06;60.99;94902.94;5087987;28;20068;-81
2023/08/08 01:10:59;;;;;;;1.95;0.80;;;;;;;17.02;61.07;94910.69;5087931;28;20478;-81
2023/08/08 01:13:27;;;;;;;1.35;0.90;;;;;;;16.93;60.88;94902.47;5087779;28;20110;-81
2023/08/08 01:15:53;;;;;;;1.50;0.93;;;;;;;16.90;61.30;94904.19;5071438;28;20047;-81
2023/08/08 01:18:19;;;;;;;0.90;0.82;;;;;;;16.86;61.00;94903.63;5087415;28;20120;-81
2023/08/08 01:20:45;;;;;;;2.20;0.90;;;;;;;16.84;61.40;94908.13;5088398;28;20553;-81
2023/08/08 01:23:33;;;;;;;0.65;0.65;;;;;;;16.73;61.82;94897.59;5093031;28;20598;-81
2023/08/08 01:25:59;;;;;;;2.22;0.95;;;;;;;16.73;61.90;94903.13;5087374;28;20020;-81
2023/08/08 01:28:25;;;;;;;1.10;1.00;;;;;;;16.65;62.32;94896.41;5089616;28;20077;-79
2023/08/08 01:30:51;;;;;;;1.42;0.90;;;;;;;16.60;62.25;94895.06;5086632;28;20474;-80
2023/08/08 01:33:16;;;;;;;1.13;0.90;;;;;;;16.54;62.56;94910.84;5088964;28;20038;-80
2023/08/08 01:35:46;;;;;;;2.75;0.80;;;;;;;16.46;62.76;94918.03;5086338;28;20020;-82
2023/08/08 01:38:20;;;;;;;2.08;0.90;;;;;;;16.41;63.20;94924.22;5088177;28;20024;-80
2023/08/08 01:40:46;;;;;;;1.65;0.80;;;;;;;16.40;62.95;94931.00;5086840;28;20151;-82
2023/08/08 01:43:13;;;;;;;1.85;0.90;;;;;;;16.36;63.17;94939.53;5086694;28;20578;-81
2023/08/08 01:45:39;;;;;;;1.63;1.23;;;;;;;16.36;63.52;94936.75;5086844;28;20522;-81
2023/08/08 01:48:09;;;;;;;1.48;0.90;;;;;;;16.32;63.50;94935.38;5088166;28;20127;-80
2023/08/08 01:50:35;;;;;;;1.10;0.90;;;;;;;16.27;63.75;94931.25;5087751;28;20019;-81
2023/08/08 01:53:00;;;;;;;2.33;1.05;;;;;;;16.26;63.99;94935.28;5087423;28;20026;-81
2023/08/08 01:55:26;;;;;;;1.50;1.00;;;;;;;16.26;63.98;94937.28;5087464;28;20480;-81
2023/08/08 01:57:51;;;;;;;1.77;1.00;;;;;;;16.23;64.35;94941.78;5086997;28;20020;-81
2023/08/08 02:00:17;;;;;;;2.28;1.00;;;;;;;16.20;64.34;94937.94;5088776;28;20024;-81
2023/08/08 02:02:42;;;;;;;1.63;1.10;;;;;;;16.18;64.58;94951.53;5087274;28;20058;-81
2023/08/08 02:05:08;;;;;;;1.90;1.25;;;;;;;16.19;64.72;94944.72;5087065;28;20020;-80
2023/08/08 02:07:33;;;;;;;2.03;1.00;;;;;;;16.22;64.51;94945.00;5088030;28;20425;-81
2023/08/08 02:09:59;;;;;;;2.53;1.30;;;;;;;16.20;64.46;94948.25;5087169;28;20458;-80
2023/08/08 02:12:24;;;;;;;1.30;1.00;;;;;;;16.15;64.47;94949.69;5087046;28;20077;-81
2023/08/08 02:14:50;;;;;;;1.83;1.00;;;;;;;16.11;64.82;94957.41;5086763;28;20030;-81
2023/08/08 02:17:15;;;;;;;2.38;1.40;;;;;;;16.11;64.98;94951.84;5088234;28;20024;-81
2023/08/08 02:19:41;;;;;;;1.42;1.08;;;;;;;16.07;65.07;94956.84;5085454;28;20024;-81
2023/08/08 02:22:06;;;;;;;1.75;0.90;;;;;;;16.07;65.08;94967.94;5087868;28;20438;-81
2023/08/08 02:24:31;;;;;;;2.38;1.05;;;;;;;16.07;65.29;94970.69;5085796;28;20514;-81
2023/08/08 02:26:57;;;;;;;1.60;1.10;;;;;;;16.10;65.17;94968.97;5090013;28;20035;-80
2023/08/08 02:29:22;;;;;;;1.60;1.10;;;;;;;16.11;65.11;94970.50;5087829;28;20024;-81
2023/08/08 02:31:48;;;;;;;1.27;1.08;;;;;;;16.10;64.94;94980.06;5085369;28;20043;-81
2023/08/08 02:34:13;;;;;;;1.92;1.60;;;;;;;16.11;65.11;94978.81;5088118;28;20016;-81
2023/08/08 02:36:38;;;;;;;1.33;1.10;;;;;;;16.15;65.27;94977.41;5068204;28;20028;-81
2023/08/08 02:39:04;;;;;;;2.28;1.52;;;;;;;16.20;65.20;94968.44;5087683;28;20089;-81
2023/08/08 02:41:29;;;;;;;1.50;1.20;;;;;;;16.23;65.04;94969.53;5086829;28;20482;-81
2023/08/08 02:43:54;;;;;;;2.78;1.90;;;;;;;16.22;65.15;94967.19;5086110;28;20028;-81
2023/08/08 02:46:20;;;;;;;2.42;1.50;;;;;;;16.18;65.29;94979.25;5087067;28;20032;-81
2023/08/08 02:48:45;;;;;;;1.77;1.45;;;;;;;16.14;65.71;94981.44;5087103;28;20038;-82
2023/08/08 02:51:11;;;;;;;2.40;1.48;;;;;;;16.16;65.57;94984.50;5087201;28;20463;-81
2023/08/08 02:53:36;;;;;;;3.50;1.80;;;;;;;16.15;65.70;94994.06;5086193;28;20396;-81
2023/08/08 02:56:01;;;;;;;3.08;1.63;;;;;;;16.16;65.44;94990.03;5086134;28;20145;-81
2023/08/08 02:58:27;;;;;;;2.55;2.00;;;;;;;16.12;65.46;94997.03;5086008;28;20103;-81
2023/08/08 03:00:52;;;;;;;2.28;1.85;;;;;;;16.15;65.58;94998.84;5086946;28;20020;-81
2023/08/08 03:03:18;;;;;;;2.85;2.10;;;;;;;16.16;65.31;94992.03;5086118;28;20020;-82
2023/08/08 03:05:44;;;;;;;2.60;1.77;;;;;;;16.14;65.44;95003.63;5086699;28;20375;-81
2023/08/08 03:08:10;;;;;;;2.97;1.92;;;;;;;16.19;65.33;95002.97;5085003;28;20028;-80
2023/08/08 03:10:35;;;;;;;2.03;1.83;;;;;;;16.18;65.34;95003.44;5086283;28;20402;-82
2023/08/08 03:13:01;;;;;;;2.60;1.67;;;;;;;16.19;65.27;95000.19;5087034;28;20016;-82
2023/08/08 03:15:26;;;;;;;3.90;1.98;;;;;;;16.13;65.13;95010.41;5085560;28;20036;-82
2023/08/08 03:17:51;;;;;;;3.30;1.92;;;;;;;16.12;65.26;95008.88;5086953;28;20029;-82
2023/08/08 03:20:17;;;;;;;3.45;2.05;;;;;;;16.15;65.12;95007.91;5085807;28;20051;-82
2023/08/08 03:22:42;;;;;;;3.30;2.15;;;;;;;16.12;65.42;95016.44;5086683;28;20028;-83
2023/08/08 03:25:08;;;;;;;3.25;2.20;;;;;;;16.15;65.23;95007.91;5086072;28;20087;-82
2023/08/08 03:27:33;;;;;;;3.88;2.53;;;;;;;16.17;64.76;95001.88;5086367;28;20028;-82
2023/08/08 03:29:59;;;;;;;2.60;2.40;;;;;;;16.18;64.70;95012.53;5092338;28;20012;-82
2023/08/08 03:32:24;;;;;;;2.90;2.60;;;;;;;16.12;64.56;94997.78;5087359;28;20052;-81
2023/08/08 03:34:49;;;;;;;3.22;2.35;;;;;;;16.15;64.84;95007.16;5085545;28;20032;-82
2023/08/08 03:37:15;;;;;;;4.65;2.50;;;;;;;16.12;64.77;94995.00;5085350;28;20067;-82
2023/08/08 03:39:40;;;;;;;4.72;2.83;;;;;;;16.15;64.60;95002.38;5085775;28;20478;-82
2023/08/08 03:42:06;;;;;;;5.47;2.53;;;;;;;16.14;64.79;95011.94;5085740;28;20446;-82
2023/08/08 03:44:32;;;;;;;3.17;2.40;;;;;;;16.17;64.64;95016.56;5085279;28;20028;-82
2023/08/08 03:46:57;;;;;;;3.00;2.42;;;;;;;16.21;64.25;95019.13;5084879;28;20038;-82
2023/08/08 03:49:22;;;;;;;3.10;2.50;;;;;;;16.17;64.67;95015.75;5096258;28;20035;-82
2023/08/08 03:51:48;;;;;;;2.97;2.53;;;;;;;16.10;64.65;95010.56;5103609;28;20112;-82
2023/08/08 03:54:14;;;;;;;3.60;3.22;;;;;;;16.10;64.75;95002.25;5097862;28;20061;-81
2023/08/08 03:56:40;;;;;;;5.88;3.00;;;;;;;16.07;64.71;95006.75;5086317;28;20028;-82
2023/08/08 03:59:05;;;;;;;3.63;2.65;;;;;;;16.09;64.27;95009.81;5084979;28;20065;-82
2023/08/08 04:01:31;;;;;;;3.08;2.80;;;;;;;16.07;64.82;95008.75;5085631;28;20518;-82
2023/08/08 04:03:57;;;;;;;4.72;3.20;;;;;;;16.07;64.45;95026.16;5085876;28;20517;-82
2023/08/08 04:06:22;;;;;;;3.47;3.15;;;;;;;16.09;64.35;95036.78;5086586;28;20029;-82
2023/08/08 04:08:48;;;;;;;3.20;2.90;;;;;;;16.03;64.54;95033.09;5089996;28;20048;-82
2023/08/08 04:11:13;;;;;;;4.97;3.65;;;;;;;16.03;64.71;95047.72;5090041;28;20030;-81
2023/08/08 04:13:38;;;;;;;4.78;3.47;;;;;;;16.02;64.87;95054.53;5089891;28;20024;-82
2023/08/08 04:16:04;;;;;;;3.45;3.03;;;;;;;16.03;64.77;95044.97;5089153;28;20020;-82
2023/08/08 04:18:29;;;;;;;3.13;2.83;;;;;;;16.07;64.21;95047.56;5090678;28;20027;-82
2023/08/08 04:20:55;;;;;;;6.07;3.13;;;;;;;16.05;64.24;95044.50;5089155;28;20036;-82
2023/08/08 04:23:20;;;;;;;3.50;3.20;;;;;;;16.07;64.26;95051.13;5090285;28;20030;-81
2023/08/08 04:25:45;;;;;;;3.45;3.15;;;;;;;16.10;64.24;95054.94;5089269;28;20103;-82
2023/08/08 04:28:11;;;;;;;3.60;3.30;;;;;;;16.13;63.93;95057.56;5090136;28;20028;-81
2023/08/08 04:30:36;;;;;;;4.70;2.92;;;;;;;16.12;64.07;95069.88;5090097;28;20351;-81
2023/08/08 04:33:02;;;;;;;3.45;3.15;;;;;;;16.19;64.00;95068.78;5090406;28;20032;-81
2023/08/08 04:35:27;;;;;;;3.45;3.15;;;;;;;16.21;63.58;95066.28;5095032;28;20081;-82
2023/08/08 04:37:52;;;;;;;5.63;3.10;;;;;;;16.18;63.65;95054.13;5087156;28;20495;-81
2023/08/08 04:40:18;;;;;;;3.40;3.10;;;;;;;16.24;63.60;95047.94;5090218;28;20058;-82
2023/08/08 04:42:43;;;;;;;3.95;3.42;;;;;;;16.22;63.84;95033.75;5088588;28;20465;-82
2023/08/08 04:45:09;;;;;;;3.72;3.20;;;;;;;16.29;63.21;95041.75;5088418;28;20035;-82
2023/08/08 04:47:34;;;;;;;5.75;3.45;;;;;;;16.32;63.07;95052.66;5089064;28;20193;-83
2023/08/08 04:50:00;;;;;;;3.50;3.17;;;;;;;16.37;63.11;95056.81;5087820;28;20020;-82
2023/08/08 04:52:25;;;;;;;3.70;3.40;;;;;;;16.38;62.93;95064.63;5088010;28;20035;-81
2023/08/08 04:54:50;;;;;;;4.65;3.47;;;;;;;16.42;63.07;95072.81;5088774;28;20531;-81
2023/08/08 04:57:16;;;;;;;4.00;3.60;;;;;;;16.41;62.49;95079.59;5089985;28;20028;-83
2023/08/08 04:59:42;;;;;;;4.65;3.35;;;;;;;16.38;62.59;95089.59;5088463;28;20532;-83
2023/08/08 05:02:08;;;;;;;4.50;2.97;;;;;;;16.41;62.81;95090.69;5088072;28;20028;-83
2023/08/08 05:04:33;;;;;;;3.60;3.30;;;;;;;16.47;62.57;95099.91;5088398;28;20080;-82
2023/08/08 05:06:58;;;;;;;6.20;2.90;;;;;;;16.51;62.57;95108.03;5089041;28;20069;-82
2023/08/08 05:09:26;;;;;;;4.03;2.83;;;;;;;16.48;62.86;95112.53;5088946;28;20183;-82
2023/08/08 05:11:52;;;;;;;3.88;3.47;;;;;;;16.56;62.83;95119.25;5088844;28;20020;-82
2023/08/08 05:14:18;;;;;;;3.88;3.28;;;;;;;16.60;62.68;95122.63;5087950;28;20635;-82
2023/08/08 05:16:43;;;;;;;4.68;2.97;;;;;;;16.60;62.83;95128.19;5086834;28;20103;-82
2023/08/08 05:19:09;;;;;;;4.13;2.90;;;;;;;16.66;62.55;95120.75;5088717;28;20390;-82
2023/08/08 05:21:34;;;;;;;2.95;2.65;;;;;;;16.59;62.08;95104.44;5086418;28;20100;-83
2023/08/08 05:24:00;;;;;;;2.83;2.63;;;;;;;16.66;62.27;95114.44;5087576;28;20458;-82
2023/08/08 05:26:25;;;;;;;3.00;2.72;;;;;;;16.62;61.51;95120.13;5088205;28;20412;-82
2023/08/08 05:28:51;;;;;;;2.55;2.35;;;;;;;16.65;61.15;95124.75;5087253;28;20028;-82
2023/08/08 05:31:16;;;;;;;4.03;2.85;;;;;;;16.67;60.95;95119.50;5088523;28;20108;-82
2023/08/08 05:33:41;;;;;;;4.80;2.70;;;;;;;16.71;60.94;95133.25;5088032;28;20024;-82
2023/08/08 05:36:07;;;;;;;2.95;2.72;;;;;;;16.72;60.95;95143.84;5088700;28;20065;-82
2023/08/08 05:38:32;;;;;;;3.38;2.75;;;;;;;16.78;60.79;95151.53;5090807;28;20031;-82
2023/08/08 05:40:58;;;;;;;3.83;2.60;;;;;;;16.80;60.81;95151.84;5088565;28;20058;-81
2023/08/08 05:43:23;;;;;;;5.25;2.95;;;;;;;16.86;60.28;95155.50;5087850;28;20028;-82
2023/08/08 05:45:49;;;;;;;3.55;2.90;;;;;;;16.90;60.73;95159.63;5087099;28;20051;-82
2023/08/08 05:48:14;;;;;;;3.33;2.90;;;;;;;16.92;60.88;95157.16;5087683;28;20024;-82
2023/08/08 05:50:40;;;;;;;3.03;2.72;;;;;;;16.90;60.73;95148.53;5069737;28;20020;-82
2023/08/08 05:53:06;;;;;;;2.92;2.63;;;;;;;17.11;61.00;95160.56;5086573;28;20458;-82
2023/08/08 05:55:31;;;;;;;3.42;3.08;;;;;;;17.16;60.68;95156.38;5069380;28;20020;-82
2023/08/08 05:57:57;;;;;;;3.17;2.83;;;;;;;17.21;60.19;95172.41;5070008;28;20032;-82
2023/08/08 06:00:22;;;;;;;3.30;2.92;;;;;;;17.25;60.40;95167.41;5087016;28;20027;-82
2023/08/08 06:02:48;;;;;;;3.83;3.53;;;;;;;17.19;60.13;95167.28;5088371;28;20470;-82
2023/08/08 06:05:13;;;;;;;3.20;2.90;;;;;;;17.19;60.10;95180.41;5086142;28;20515;-82
2023/08/08 06:07:39;;;;;;;3.90;2.97;;;;;;;17.21;60.08;95178.72;5088036;28;20024;-82
2023/08/08 06:10:05;;;;;;;3.42;3.13;;;;;;;17.28;60.23;95176.81;5087045;28;20228;-82
2023/08/08 06:12:31;;;;;;;2.80;2.60;;;;;;;17.32;59.89;95169.84;5087687;28;20028;-82
2023/08/08 06:14:56;;;;;;;3.53;3.22;;;;;;;17.28;59.72;95171.25;5087604;28;20399;-82
2023/08/08 06:17:23;;;;;;;3.33;3.03;;;;;;;17.30;59.76;95168.75;5086664;28;20020;-83
2023/08/08 06:19:49;;;;;;;2.78;2.58;;;;;;;17.34;59.30;95164.56;5086703;28;20448;-82
2023/08/08 06:22:15;;;;;;;4.05;2.70;;;;;;;17.35;59.39;95174.44;5086520;28;20073;-82
2023/08/08 06:24:40;;;;;;;3.30;2.90;;;;;;;17.36;58.73;95169.63;5088019;28;20024;-82
2023/08/08 06:27:06;;;;;;;5.85;3.80;;;;;;;17.35;59.16;95179.22;5085459;28;20027;-82
2023/08/08 06:29:31;;;;;;;5.47;3.40;;;;;;;17.33;59.32;95170.59;5068603;28;20036;-83
2023/08/08 06:31:57;;;;;;;4.50;3.10;;;;;;;17.34;59.55;95169.34;5085675;28;20028;-82
2023/08/08 06:34:22;;;;;;;4.53;3.10;;;;;;;17.47;59.57;95176.19;5086708;28;20060;-82
2023/08/08 06:36:47;;;;;;;3.40;3.10;;;;;;;17.51;59.95;95178.78;5087322;28;20024;-82
2023/08/08 06:39:13;;;;;;;3.33;2.97;;;;;;;17.56;58.51;95178.13;5085110;28;20028;-82
2023/08/08 06:41:38;;;;;;;3.22;2.90;;;;;;;17.57;56.44;95170.56;5092177;28;20116;-82
2023/08/08 06:44:04;;;;;;;2.45;2.10;;;;;;;17.55;55.16;95176.59;5084695;28;20077;-82
2023/08/08 06:46:30;;;;;;;3.85;2.40;;;;;;;17.59;55.21;95173.59;5085732;28;20032;-82
2023/08/08 06:48:58;;;;;;;5.72;3.03;;;;;;;17.57;55.11;95170.56;5086154;28;20028;-82
2023/08/08 06:51:26;;;;;;;4.78;2.50;;;;;;;17.55;52.70;95171.03;5068671;28;20057;-82
2023/08/08 06:53:52;;;;;;;3.80;2.20;;;;;;;17.57;52.61;95181.66;5068659;28;20028;-82
2023/08/08 06:56:18;;;;;;;3.05;2.25;;;;;;;17.55;52.34;95175.81;5067682;28;20066;-82
2023/08/08 06:58:43;;;;;;;3.08;2.13;;;;;;;17.57;52.36;95182.44;5085889;28;20032;-82
2023/08/08 07:01:09;;;;;;;2.13;1.90;;;;;;;17.63;52.40;95179.75;5084416;28;20028;-82
2023/08/08 07:03:35;;;;;;;2.30;2.10;;;;;;;17.65;52.18;95189.16;5085772;28;20032;-82
2023/08/08 07:06:00;;;;;;;2.70;2.10;;;;;;;17.64;51.16;95193.16;5084998;28;20032;-81
2023/08/08 07:08:26;;;;;;;2.97;2.10;;;;;;;17.68;51.41;95179.09;5086883;28;20055;-81
2023/08/08 07:10:51;;;;;;;2.67;2.28;;;;;;;17.72;51.53;95183.25;5085606;28;20028;-81
2023/08/08 07:13:17;;;;;;;3.42;2.42;;;;;;;17.74;51.28;95177.22;5084976;28;20035;-81
2023/08/08 07:15:42;;;;;;;2.47;2.28;;;;;;;17.77;52.02;95182.56;5091033;28;20406;-82
2023/08/08 07:18:08;;;;;;;2.30;2.10;;;;;;;17.83;51.93;95171.53;5094542;28;20390;-82
2023/08/08 07:20:33;;;;;;;3.10;2.35;;;;;;;17.87;51.77;95172.13;5098660;28;20490;-82
2023/08/08 07:23:00;;;;;;;2.88;2.13;;;;;;;17.91;51.33;95175.50;5100629;28;20020;-83
2023/08/08 07:25:25;;;;;;;2.15;1.88;;;;;;;17.94;50.48;95177.31;5089019;28;20051;-82
2023/08/08 07:27:51;;;;;;;2.65;1.50;;;;;;;18.00;48.80;95169.81;5087046;28;20024;-82
2023/08/08 07:30:16;;;;;;;1.90;1.65;;;;;;;18.04;48.98;95175.97;5068420;28;20032;-82
2023/08/08 07:32:42;;;;;;;1.95;1.70;;;;;;;18.06;49.21;95178.25;5087272;28;20035;-81
2023/08/08 07:35:08;;;;;;;3.08;2.00;;;;;;;18.09;49.32;95182.13;5085840;28;20078;-82
2023/08/08 07:37:34;;;;;;;1.95;1.48;;;;;;;18.14;47.79;95178.66;5087064;28;20024;-83
2023/08/08 07:40:00;;;;;;;1.92;1.63;;;;;;;18.16;48.17;95171.34;5084723;28;20035;-82
2023/08/08 07:42:26;;;;;;;2.38;1.65;;;;;;;18.24;49.56;95169.72;5086738;28;20016;-83
2023/08/08 07:44:51;;;;;;;1.80;1.40;;;;;;;18.32;48.58;95172.88;5091123;28;20027;-83
2023/08/08 07:47:16;;;;;;;1.80;1.30;;;;;;;18.34;47.73;95178.72;5087428;28;20024;-82
2023/08/08 07:49:42;;;;;;;1.48;1.30;;;;;;;18.35;46.95;95177.50;5085358;28;20028;-83
2023/08/08 07:52:07;;;;;;;3.63;1.60;;;;;;;18.38;46.92;95173.72;5084530;28;20070;-83
2023/08/08 07:54:34;;;;;;;2.08;1.52;;;;;;;18.38;47.28;95184.88;5087099;28;20085;-83
2023/08/08 07:56:59;;;;;;;1.88;1.40;;;;;;;18.47;47.98;95186.78;5085615;28;20473;-83
2023/08/08 07:59:24;;;;;;;2.00;1.20;;;;;;;18.60;47.63;95183.69;5086916;28;20271;-83
2023/08/08 08:01:50;;;;;;;3.00;1.98;;;;;;;18.66;47.71;95182.50;5085241;28;20107;-83
2023/08/08 08:04:15;;;;;;;4.22;1.60;;;;;;;18.73;45.81;95186.94;5086745;28;20067;-83
2023/08/08 08:06:41;;;;;;;2.10;1.50;;;;;;;18.79;46.03;95176.63;5085972;28;20112;-83
2023/08/08 08:09:06;;;;;;;4.43;1.60;;;;;;;18.84;45.95;95185.06;5084396;28;20470;-82
2023/08/08 08:11:32;;;;;;;2.22;1.45;;;;;;;18.80;46.59;95178.16;5085376;28;20490;-82
2023/08/08 08:13:57;;;;;;;2.00;1.45;;;;;;;18.92;46.39;95176.31;5085485;28;20438;-81
2023/08/08 08:16:22;;;;;;;2.33;1.85;;;;;;;19.08;46.83;95178.53;5085269;28;20078;-83
2023/08/08 08:18:48;;;;;;;3.92;1.88;;;;;;;19.25;46.44;95173.19;5085597;28;20024;-83
2023/08/08 08:21:14;;;;;;;1.98;1.67;;;;;;;19.34;46.38;95175.84;5085374;28;20024;-82
2023/08/08 08:23:39;;;;;;;2.53;1.35;;;;;;;19.52;45.06;95166.41;5083991;28;20024;-82
2023/08/08 08:26:05;;;;;;;2.10;1.60;;;;;;;19.69;44.99;95166.63;5084178;28;20040;-81
2023/08/08 08:28:31;;;;;;;3.30;1.70;;;;;;;19.85;45.00;95179.97;5084514;28;20020;-83
2023/08/08 08:30:56;;;;;;;2.95;1.73;;;;;;;19.78;44.21;95189.53;5085460;28;20431;-82
2023/08/08 08:33:21;;;;;;;3.10;1.77;;;;;;;19.82;44.52;95194.91;5085936;28;20170;-82
2023/08/08 08:35:47;;;;;;;2.50;1.60;;;;;;;19.82;44.45;95192.88;5084070;28;20032;-82
2023/08/08 08:38:13;;;;;;;2.25;1.83;;;;;;;19.88;43.38;95207.63;5084902;28;20024;-82
2023/08/08 08:40:39;;;;;;;2.72;2.00;;;;;;;20.03;42.98;95192.81;5084946;28;20035;-82
2023/08/08 08:43:06;;;;;;;3.00;2.13;;;;;;;20.11;43.89;95191.13;5084484;28;20020;-82
2023/08/08 08:45:33;;;;;;;4.30;1.83;;;;;;;20.17;43.27;95198.28;5067253;28;20031;-83
2023/08/08 08:47:59;;;;;;;2.13;1.80;;;;;;;20.27;41.76;95195.31;5087625;28;20028;-83
2023/08/08 08:50:26;;;;;;;2.55;1.95;;;;;;;20.36;42.33;95195.91;5085989;28;20553;-82
2023/08/08 08:52:55;;;;;;;2.40;2.10;;;;;;;20.48;42.38;95191.22;5085576;28;20476;-82
2023/08/08 08:55:21;;;;;;;2.30;1.98;;;;;;;20.60;41.51;95194.84;5089678;28;20069;-82
2023/08/08 08:57:47;;;;;;;4.47;2.00;;;;;;;20.74;41.71;95185.53;5087165;28;20026;-83
2023/08/08 09:00:13;;;;;;;2.53;1.90;;;;;;;20.85;42.43;95180.03;5088243;28;20297;-82
2023/08/08 09:02:38;;;;;;;4.03;2.05;;;;;;;20.83;42.00;95182.56;5088868;28;20036;-82
2023/08/08 09:05:04;;;;;;;3.80;2.30;;;;;;;20.97;42.61;95174.50;5087704;28;20024;-82
2023/08/08 09:07:32;;;;;;;2.55;2.17;;;;;;;21.09;42.57;95178.88;5087328;28;20039;-82
2023/08/08 09:09:57;;;;;;;3.50;2.33;;;;;;;21.16;41.61;95184.78;5069913;28;20080;-82
2023/08/08 09:12:24;;;;;;;2.72;2.30;;;;;;;21.30;40.54;95174.72;5088938;28;20051;-82
2023/08/08 09:14:54;;;;;;;3.80;2.40;;;;;;;21.24;40.68;95187.09;5087892;28;20035;-82
2023/08/08 09:17:20;;;;;;;4.00;2.30;;;;;;;21.40;40.88;95175.25;5088217;28;20030;-82
2023/08/08 09:19:46;;;;;;;1.90;1.70;;;;;;;21.51;40.58;95175.31;5069608;28;20028;-82
2023/08/08 09:22:13;;;;;;;2.42;1.83;;;;;;;21.59;40.09;95181.16;5087101;28;20474;-82
2023/08/08 09:24:42;;;;;;;2.30;2.00;;;;;;;21.69;40.06;95176.88;5087182;28;20460;-82
2023/08/08 09:27:09;;;;;;;2.50;1.92;;;;;;;21.78;39.61;95179.44;5069739;28;20501;-82
2023/08/08 09:29:35;;;;;;;2.17;1.83;;;;;;;21.84;38.97;95169.00;5070311;28;20016;-82
2023/08/08 09:32:04;;;;;;;3.90;2.13;;;;;;;21.95;39.33;95146.66;5086003;28;20028;-82
2023/08/08 09:34:29;;;;;;;2.38;2.05;;;;;;;22.01;38.55;95164.22;5087035;28;20021;-82
2023/08/08 09:36:55;;;;;;;3.03;2.05;;;;;;;22.00;38.29;95165.47;5085771;28;20028;-82
2023/08/08 09:39:21;;;;;;;2.70;2.20;;;;;;;22.09;38.30;95167.28;5086972;28;20093;-82
2023/08/08 09:41:47;;;;;;;4.97;2.08;;;;;;;22.25;38.27;95162.97;5088026;28;20179;-82
2023/08/08 09:44:12;;;;;;;3.10;1.75;;;;;;;22.40;37.52;95166.31;5087659;28;20081;-83
2023/08/08 09:46:39;;;;;;;2.78;1.95;;;;;;;22.46;37.54;95164.25;5088038;28;20032;-82
2023/08/08 09:49:05;;;;;;;3.03;1.70;;;;;;;22.52;37.44;95162.22;5086035;28;20082;-82
2023/08/08 09:51:33;;;;;;;2.45;2.25;;;;;;;22.61;37.51;95169.59;5092705;28;20016;-83
2023/08/08 09:53:59;;;;;;;2.20;2.00;;;;;;;22.83;37.80;95171.63;5086566;28;20028;-82
2023/08/08 09:56:25;;;;;;;2.20;1.85;;;;;;;22.91;37.40;95174.69;5087127;28;20018;-82
2023/08/08 09:58:51;;;;;;;2.45;1.80;;;;;;;22.96;37.45;95166.28;5087410;28;20066;-83
2023/08/08 10:01:19;;;;;;;3.63;2.20;;;;;;;23.19;36.94;95166.97;5086512;28;20037;-83
2023/08/08 10:03:45;;;;;;;4.47;2.65;;;;;;;23.23;36.64;95177.94;5069553;28;20107;-83
2023/08/08 10:06:10;;;;;;;3.60;2.30;;;;;;;23.23;36.74;95173.09;5086341;28;20102;-83
2023/08/08 10:08:36;;;;;;;3.72;2.53;;;;;;;23.37;36.32;95168.44;5087791;28;20482;-83
2023/08/08 10:11:02;;;;;;;3.25;2.50;;;;;;;23.40;36.53;95170.22;5085440;28;20405;-83
2023/08/08 10:13:27;;;;;;;3.25;1.60;;;;;;;23.43;35.65;95168.41;5086866;28;20043;-82
2023/08/08 10:15:54;;;;;;;3.20;1.98;;;;;;;23.62;35.48;95174.97;5086576;28;20390;-83
2023/08/08 10:18:21;;;;;;;2.50;2.15;;;;;;;23.96;35.04;95178.34;5086557;28;20044;-83
2023/08/08 10:20:48;;;;;;;3.15;2.17;;;;;;;23.79;35.88;95172.84;5085966;28;20047;-83
2023/08/08 10:23:19;;;;;;;2.75;2.53;;;;;;;23.85;35.22;95182.00;5085177;28;20058;-84
2023/08/08 10:25:46;;;;;;;2.15;1.80;;;;;;;24.11;34.68;95178.78;5085981;28;20071;-83
2023/08/08 10:28:14;;;;;;;2.05;1.80;;;;;;;24.02;35.43;95181.13;5085157;28;20024;-83
2023/08/08 10:30:56;;;;;;;2.63;1.77;;;;;;;24.19;34.63;95175.41;5086387;28;20042;-83
2023/08/08 10:33:40;;;;;;;2.47;1.90;;;;;;;24.38;34.55;95181.94;5085399;28;20082;-83
2023/08/08 10:36:07;;;;;;;1.40;1.20;;;;;;;24.65;33.39;95180.19;5085535;28;20036;-84
2023/08/08 10:38:40;;;;;;;3.42;1.58;;;;;;;24.99;33.48;95177.06;5087185;28;20068;-83
2023/08/08 10:41:09;;;;;;;2.63;1.60;;;;;;;25.11;33.07;95179.25;5086273;28;20446;-84
2023/08/08 10:43:34;;;;;;;2.15;1.33;;;;;;;25.14;33.19;95178.19;5086195;28;20073;-84
2023/08/08 10:46:01;;;;;;;3.40;1.88;;;;;;;25.42;32.60;95171.50;5086234;28;20032;-83
2023/08/08 10:48:27;;;;;;;2.17;1.48;;;;;;;25.49;32.05;95167.31;5087245;28;20107;-84
2023/08/08 10:51:00;;;;;;;2.20;1.45;;;;;;;25.64;31.70;95167.66;5085231;28;20032;-83
2023/08/08 10:53:26;;;;;;;2.05;1.50;;;;;;;25.78;31.70;95166.47;5087324;28;20498;-83
2023/08/08 10:56:02;;;;;;;2.00;1.20;;;;;;;25.90;31.44;95167.81;5090008;28;20410;-84
2023/08/08 10:58:39;;;;;;;2.65;1.33;;;;;;;26.03;31.47;95155.09;5086548;28;20114;-84
2023/08/08 11:01:07;;;;;;;2.92;1.90;;;;;;;26.03;30.88;95158.69;5085600;28;20024;-84
2023/08/08 11:03:37;;;;;;;2.08;1.30;;;;;;;26.01;31.29;95172.53;5084848;28;20016;-84
2023/08/08 11:06:03;;;;;;;2.50;1.60;;;;;;;26.12;31.43;95147.03;5086103;28;20036;-84
2023/08/08 11:08:30;;;;;;;1.60;1.27;;;;;;;26.26;31.46;95145.00;5084878;28;20514;-84
2023/08/08 11:10:56;;;;;;;2.17;1.30;;;;;;;26.40;31.20;95149.41;5067591;28;20036;-84
2023/08/08 11:13:21;;;;;;;2.05;1.20;;;;;;;26.09;30.95;95156.56;5085331;28;20402;-84
2023/08/08 11:15:47;;;;;;;1.88;1.20;;;;;;;26.20;31.03;95152.78;5084215;28;20489;-85
2023/08/08 11:18:13;;;;;;;4.97;1.30;;;;;;;26.19;30.88;95157.66;5086325;28;20316;-84
2023/08/08 11:20:39;;;;;;;1.98;1.65;;;;;;;26.05;31.17;95144.84;5084387;28;20246;-84
2023/08/08 11:23:09;;;;;;;2.28;1.45;;;;;;;25.99;31.38;95154.66;5084999;28;20020;-84
2023/08/08 11:25:35;;;;;;;2.80;1.50;;;;;;;26.12;31.21;95158.28;5086195;28;20070;-84
2023/08/08 11:28:00;;;;;;;2.25;1.60;;;;;;;26.18;31.03;95153.34;5085508;28;20435;-84